sensor_id;sensor_type;location;lat;lon;timestamp;P1;durP1;ratioP1;P2;durP2;ratioP2
49578;SDS011;35483;50.828;3.228;2024-03-08T00:02:03;21.52;;;16.83;;
49578;SDS011;35483;50.828;3.228;2024-03-08T00:04:29;20.92;;;17.20;;
49578;SDS011;35483;50.828;3.228;2024-03-08T00:06:55;23.50;;;16.75;;
49578;SDS011;35483;50.828;3.228;2024-03-08T00:09:21;22.02;;;15.98;;
49578;SDS011;35483;50.828;3.228;2024-03-08T00:11:46;21.98;;;17.67;;
49578;SDS011;35483;50.828;3.228;2024-03-08T00:14:15;21.38;;;16.27;;
49578;SDS011;35483;50.828;3.228;2024-03-08T00:16:41;21.92;;;16.85;;
49578;SDS011;35483;50.828;3.228;2024-03-08T00:19:08;22.65;;;17.23;;
49578;SDS011;35483;50.828;3.228;2024-03-08T00:21:34;22.05;;;16.85;;
49578;SDS011;35483;50.828;3.228;2024-03-08T00:24:00;20.00;;;16.65;;
49578;SDS011;35483;50.828;3.228;2024-03-08T00:26:26;23.65;;;17.50;;
49578;SDS011;35483;50.828;3.228;2024-03-08T00:28:53;21.98;;;17.17;;
49578;SDS011;35483;50.828;3.228;2024-03-08T00:31:19;22.52;;;17.48;;
49578;SDS011;35483;50.828;3.228;2024-03-08T00:33:45;20.33;;;15.73;;
49578;SDS011;35483;50.828;3.228;2024-03-08T00:36:11;21.33;;;17.33;;
49578;SDS011;35483;50.828;3.228;2024-03-08T00:38:37;23.73;;;17.20;;
49578;SDS011;35483;50.828;3.228;2024-03-08T00:41:02;21.50;;;16.70;;
49578;SDS011;35483;50.828;3.228;2024-03-08T00:43:28;22.75;;;16.65;;
49578;SDS011;35483;50.828;3.228;2024-03-08T00:45:55;23.65;;;17.52;;
49578;SDS011;35483;50.828;3.228;2024-03-08T00:48:23;22.90;;;16.85;;
49578;SDS011;35483;50.828;3.228;2024-03-08T00:50:49;19.95;;;16.55;;
49578;SDS011;35483;50.828;3.228;2024-03-08T00:53:15;20.15;;;16.23;;
49578;SDS011;35483;50.828;3.228;2024-03-08T00:55:42;22.25;;;17.45;;
49578;SDS011;35483;50.828;3.228;2024-03-08T00:58:07;23.08;;;17.00;;
49578;SDS011;35483;50.828;3.228;2024-03-08T01:00:34;22.80;;;17.25;;
49578;SDS011;35483;50.828;3.228;2024-03-08T01:03:00;21.88;;;16.80;;
49578;SDS011;35483;50.828;3.228;2024-03-08T01:05:25;20.92;;;16.42;;
49578;SDS011;35483;50.828;3.228;2024-03-08T01:07:51;20.48;;;16.20;;
49578;SDS011;35483;50.828;3.228;2024-03-08T01:10:17;22.00;;;16.45;;
49578;SDS011;35483;50.828;3.228;2024-03-08T01:12:43;21.98;;;17.35;;
49578;SDS011;35483;50.828;3.228;2024-03-08T01:15:09;19.77;;;15.63;;
49578;SDS011;35483;50.828;3.228;2024-03-08T01:17:38;22.83;;;17.35;;
49578;SDS011;35483;50.828;3.228;2024-03-08T01:20:04;22.92;;;16.83;;
49578;SDS011;35483;50.828;3.228;2024-03-08T01:22:31;25.20;;;17.55;;
49578;SDS011;35483;50.828;3.228;2024-03-08T01:24:57;21.00;;;16.73;;
49578;SDS011;35483;50.828;3.228;2024-03-08T01:27:22;24.15;;;17.80;;
49578;SDS011;35483;50.828;3.228;2024-03-08T01:29:50;24.38;;;16.95;;
49578;SDS011;35483;50.828;3.228;2024-03-08T01:32:15;21.85;;;16.95;;
49578;SDS011;35483;50.828;3.228;2024-03-08T01:34:42;23.10;;;16.52;;
49578;SDS011;35483;50.828;3.228;2024-03-08T01:37:10;23.45;;;16.63;;
49578;SDS011;35483;50.828;3.228;2024-03-08T01:39:35;23.55;;;17.25;;
49578;SDS011;35483;50.828;3.228;2024-03-08T01:42:01;21.58;;;16.70;;
49578;SDS011;35483;50.828;3.228;2024-03-08T01:44:27;23.05;;;17.40;;
49578;SDS011;35483;50.828;3.228;2024-03-08T01:46:53;21.02;;;16.65;;
49578;SDS011;35483;50.828;3.228;2024-03-08T01:49:19;23.27;;;17.10;;
49578;SDS011;35483;50.828;3.228;2024-03-08T01:51:47;21.80;;;16.55;;
49578;SDS011;35483;50.828;3.228;2024-03-08T01:54:15;22.60;;;17.08;;
49578;SDS011;35483;50.828;3.228;2024-03-08T01:56:43;22.40;;;16.90;;
49578;SDS011;35483;50.828;3.228;2024-03-08T01:59:09;22.13;;;15.90;;
49578;SDS011;35483;50.828;3.228;2024-03-08T02:01:35;20.92;;;16.05;;
49578;SDS011;35483;50.828;3.228;2024-03-08T02:04:01;21.75;;;17.13;;
49578;SDS011;35483;50.828;3.228;2024-03-08T02:06:27;22.25;;;17.23;;
49578;SDS011;35483;50.828;3.228;2024-03-08T02:08:52;21.98;;;15.55;;
49578;SDS011;35483;50.828;3.228;2024-03-08T02:11:18;20.63;;;15.48;;
49578;SDS011;35483;50.828;3.228;2024-03-08T02:13:46;22.50;;;15.80;;
49578;SDS011;35483;50.828;3.228;2024-03-08T02:16:11;19.30;;;15.35;;
49578;SDS011;35483;50.828;3.228;2024-03-08T02:18:38;22.25;;;16.02;;
49578;SDS011;35483;50.828;3.228;2024-03-08T02:21:05;22.55;;;15.90;;
49578;SDS011;35483;50.828;3.228;2024-03-08T02:23:32;21.02;;;17.10;;
49578;SDS011;35483;50.828;3.228;2024-03-08T02:25:58;20.50;;;15.75;;
49578;SDS011;35483;50.828;3.228;2024-03-08T02:28:24;21.38;;;15.82;;
49578;SDS011;35483;50.828;3.228;2024-03-08T02:30:50;18.63;;;14.98;;
49578;SDS011;35483;50.828;3.228;2024-03-08T02:33:19;19.92;;;14.57;;
49578;SDS011;35483;50.828;3.228;2024-03-08T02:35:46;21.42;;;16.02;;
49578;SDS011;35483;50.828;3.228;2024-03-08T02:38:13;22.42;;;15.90;;
49578;SDS011;35483;50.828;3.228;2024-03-08T02:40:41;24.23;;;17.65;;
49578;SDS011;35483;50.828;3.228;2024-03-08T02:43:14;21.38;;;15.60;;
49578;SDS011;35483;50.828;3.228;2024-03-08T02:45:40;22.55;;;16.40;;
49578;SDS011;35483;50.828;3.228;2024-03-08T02:48:10;22.10;;;16.27;;
49578;SDS011;35483;50.828;3.228;2024-03-08T02:50:37;22.48;;;16.38;;
49578;SDS011;35483;50.828;3.228;2024-03-08T02:53:06;24.27;;;16.63;;
49578;SDS011;35483;50.828;3.228;2024-03-08T02:55:33;23.27;;;16.13;;
49578;SDS011;35483;50.828;3.228;2024-03-08T02:58:04;23.27;;;16.23;;
49578;SDS011;35483;50.828;3.228;2024-03-08T03:00:30;24.75;;;16.40;;
49578;SDS011;35483;50.828;3.228;2024-03-08T03:02:58;22.90;;;16.08;;
49578;SDS011;35483;50.828;3.228;2024-03-08T03:05:24;20.00;;;15.88;;
49578;SDS011;35483;50.828;3.228;2024-03-08T03:07:50;23.27;;;16.30;;
49578;SDS011;35483;50.828;3.228;2024-03-08T03:10:17;23.23;;;16.90;;
49578;SDS011;35483;50.828;3.228;2024-03-08T03:12:43;23.17;;;16.50;;
49578;SDS011;35483;50.828;3.228;2024-03-08T03:15:10;22.45;;;17.50;;
49578;SDS011;35483;50.828;3.228;2024-03-08T03:17:37;23.77;;;17.27;;
49578;SDS011;35483;50.828;3.228;2024-03-08T03:20:07;21.60;;;16.23;;
49578;SDS011;35483;50.828;3.228;2024-03-08T03:22:38;24.00;;;16.48;;
49578;SDS011;35483;50.828;3.228;2024-03-08T03:25:04;23.50;;;16.77;;
49578;SDS011;35483;50.828;3.228;2024-03-08T03:27:31;24.25;;;16.67;;
49578;SDS011;35483;50.828;3.228;2024-03-08T03:29:58;25.85;;;17.55;;
49578;SDS011;35483;50.828;3.228;2024-03-08T03:32:31;24.02;;;18.38;;
49578;SDS011;35483;50.828;3.228;2024-03-08T03:34:58;24.60;;;18.02;;
49578;SDS011;35483;50.828;3.228;2024-03-08T03:37:23;24.65;;;17.40;;
49578;SDS011;35483;50.828;3.228;2024-03-08T03:39:49;24.02;;;16.88;;
49578;SDS011;35483;50.828;3.228;2024-03-08T03:42:18;24.92;;;17.40;;
49578;SDS011;35483;50.828;3.228;2024-03-08T03:44:45;23.45;;;17.38;;
49578;SDS011;35483;50.828;3.228;2024-03-08T03:47:12;25.00;;;17.98;;
49578;SDS011;35483;50.828;3.228;2024-03-08T03:49:38;25.65;;;18.25;;
49578;SDS011;35483;50.828;3.228;2024-03-08T03:52:04;23.45;;;17.25;;
49578;SDS011;35483;50.828;3.228;2024-03-08T03:54:30;23.80;;;17.58;;
49578;SDS011;35483;50.828;3.228;2024-03-08T03:56:56;24.17;;;17.67;;
49578;SDS011;35483;50.828;3.228;2024-03-08T03:59:22;23.33;;;17.45;;
49578;SDS011;35483;50.828;3.228;2024-03-08T04:01:49;23.40;;;17.30;;
49578;SDS011;35483;50.828;3.228;2024-03-08T04:04:15;26.15;;;18.63;;
49578;SDS011;35483;50.828;3.228;2024-03-08T04:06:41;30.58;;;23.98;;
49578;SDS011;35483;50.828;3.228;2024-03-08T04:09:07;27.80;;;22.15;;
49578;SDS011;35483;50.828;3.228;2024-03-08T04:11:33;27.48;;;18.65;;
49578;SDS011;35483;50.828;3.228;2024-03-08T04:13:59;24.75;;;19.17;;
49578;SDS011;35483;50.828;3.228;2024-03-08T04:16:24;27.20;;;19.60;;
49578;SDS011;35483;50.828;3.228;2024-03-08T04:18:51;21.52;;;17.67;;
49578;SDS011;35483;50.828;3.228;2024-03-08T04:21:17;24.48;;;18.27;;
49578;SDS011;35483;50.828;3.228;2024-03-08T04:23:44;23.50;;;18.27;;
49578;SDS011;35483;50.828;3.228;2024-03-08T04:26:10;25.13;;;18.55;;
49578;SDS011;35483;50.828;3.228;2024-03-08T04:28:36;25.30;;;18.48;;
49578;SDS011;35483;50.828;3.228;2024-03-08T04:31:03;25.30;;;18.98;;
49578;SDS011;35483;50.828;3.228;2024-03-08T04:33:29;23.33;;;17.55;;
49578;SDS011;35483;50.828;3.228;2024-03-08T04:35:54;25.75;;;19.10;;
49578;SDS011;35483;50.828;3.228;2024-03-08T04:38:21;25.73;;;19.25;;
49578;SDS011;35483;50.828;3.228;2024-03-08T04:40:47;25.70;;;18.23;;
49578;SDS011;35483;50.828;3.228;2024-03-08T04:43:14;28.42;;;20.73;;
49578;SDS011;35483;50.828;3.228;2024-03-08T04:45:40;26.10;;;19.40;;
49578;SDS011;35483;50.828;3.228;2024-03-08T04:48:08;29.10;;;19.25;;
49578;SDS011;35483;50.828;3.228;2024-03-08T04:50:34;25.65;;;19.52;;
49578;SDS011;35483;50.828;3.228;2024-03-08T04:53:00;26.48;;;19.58;;
49578;SDS011;35483;50.828;3.228;2024-03-08T04:55:26;24.58;;;19.35;;
49578;SDS011;35483;50.828;3.228;2024-03-08T04:57:51;27.55;;;19.75;;
49578;SDS011;35483;50.828;3.228;2024-03-08T05:00:18;26.08;;;20.85;;
49578;SDS011;35483;50.828;3.228;2024-03-08T05:02:44;25.95;;;19.52;;
49578;SDS011;35483;50.828;3.228;2024-03-08T05:05:10;25.25;;;19.00;;
49578;SDS011;35483;50.828;3.228;2024-03-08T05:07:39;26.02;;;20.00;;
49578;SDS011;35483;50.828;3.228;2024-03-08T05:10:05;27.58;;;20.88;;
49578;SDS011;35483;50.828;3.228;2024-03-08T05:12:32;29.95;;;20.60;;
49578;SDS011;35483;50.828;3.228;2024-03-08T05:14:58;29.67;;;21.10;;
49578;SDS011;35483;50.828;3.228;2024-03-08T05:17:24;25.27;;;20.05;;
49578;SDS011;35483;50.828;3.228;2024-03-08T05:19:50;26.33;;;21.00;;
49578;SDS011;35483;50.828;3.228;2024-03-08T05:22:16;27.63;;;21.73;;
49578;SDS011;35483;50.828;3.228;2024-03-08T05:24:42;25.88;;;21.50;;
49578;SDS011;35483;50.828;3.228;2024-03-08T05:27:08;25.52;;;21.35;;
49578;SDS011;35483;50.828;3.228;2024-03-08T05:29:34;28.83;;;21.25;;
49578;SDS011;35483;50.828;3.228;2024-03-08T05:32:00;28.13;;;21.25;;
49578;SDS011;35483;50.828;3.228;2024-03-08T05:34:27;29.88;;;21.45;;
49578;SDS011;35483;50.828;3.228;2024-03-08T05:36:54;29.77;;;21.73;;
49578;SDS011;35483;50.828;3.228;2024-03-08T05:39:19;28.02;;;20.83;;
49578;SDS011;35483;50.828;3.228;2024-03-08T05:41:45;28.52;;;21.92;;
49578;SDS011;35483;50.828;3.228;2024-03-08T05:44:12;27.58;;;21.70;;
49578;SDS011;35483;50.828;3.228;2024-03-08T05:46:38;27.15;;;21.92;;
49578;SDS011;35483;50.828;3.228;2024-03-08T05:49:04;26.58;;;22.85;;
49578;SDS011;35483;50.828;3.228;2024-03-08T05:51:33;26.10;;;21.02;;
49578;SDS011;35483;50.828;3.228;2024-03-08T05:54:04;27.08;;;21.40;;
49578;SDS011;35483;50.828;3.228;2024-03-08T05:56:34;28.23;;;21.67;;
49578;SDS011;35483;50.828;3.228;2024-03-08T05:58:59;27.58;;;20.92;;
49578;SDS011;35483;50.828;3.228;2024-03-08T06:01:25;30.63;;;22.38;;
49578;SDS011;35483;50.828;3.228;2024-03-08T06:03:55;27.30;;;21.13;;
49578;SDS011;35483;50.828;3.228;2024-03-08T06:06:22;27.17;;;21.60;;
49578;SDS011;35483;50.828;3.228;2024-03-08T06:08:48;27.98;;;22.25;;
49578;SDS011;35483;50.828;3.228;2024-03-08T06:11:14;28.20;;;21.90;;
49578;SDS011;35483;50.828;3.228;2024-03-08T06:13:42;28.40;;;21.80;;
49578;SDS011;35483;50.828;3.228;2024-03-08T06:16:08;29.02;;;22.05;;
49578;SDS011;35483;50.828;3.228;2024-03-08T06:18:34;28.42;;;21.30;;
49578;SDS011;35483;50.828;3.228;2024-03-08T06:21:04;27.40;;;21.83;;
49578;SDS011;35483;50.828;3.228;2024-03-08T06:23:34;26.75;;;22.00;;
49578;SDS011;35483;50.828;3.228;2024-03-08T06:26:06;31.25;;;21.50;;
49578;SDS011;35483;50.828;3.228;2024-03-08T06:28:34;25.17;;;20.67;;
49578;SDS011;35483;50.828;3.228;2024-03-08T06:31:00;28.77;;;21.98;;
49578;SDS011;35483;50.828;3.228;2024-03-08T06:33:26;26.67;;;20.80;;
49578;SDS011;35483;50.828;3.228;2024-03-08T06:35:53;27.98;;;21.92;;
49578;SDS011;35483;50.828;3.228;2024-03-08T06:38:22;25.70;;;21.17;;
49578;SDS011;35483;50.828;3.228;2024-03-08T06:40:51;27.65;;;21.33;;
49578;SDS011;35483;50.828;3.228;2024-03-08T06:43:17;27.77;;;21.98;;
49578;SDS011;35483;50.828;3.228;2024-03-08T06:45:44;26.35;;;21.05;;
49578;SDS011;35483;50.828;3.228;2024-03-08T06:48:17;27.55;;;21.58;;
49578;SDS011;35483;50.828;3.228;2024-03-08T06:50:44;26.83;;;20.75;;
49578;SDS011;35483;50.828;3.228;2024-03-08T06:53:11;29.60;;;21.88;;
49578;SDS011;35483;50.828;3.228;2024-03-08T06:55:37;30.25;;;22.45;;
49578;SDS011;35483;50.828;3.228;2024-03-08T06:58:03;28.90;;;21.77;;
49578;SDS011;35483;50.828;3.228;2024-03-08T07:00:29;29.95;;;22.77;;
49578;SDS011;35483;50.828;3.228;2024-03-08T07:02:56;27.83;;;21.63;;
49578;SDS011;35483;50.828;3.228;2024-03-08T07:05:25;28.27;;;22.45;;
49578;SDS011;35483;50.828;3.228;2024-03-08T07:08:00;27.90;;;21.52;;
49578;SDS011;35483;50.828;3.228;2024-03-08T07:10:25;28.35;;;20.55;;
49578;SDS011;35483;50.828;3.228;2024-03-08T07:12:51;26.67;;;20.77;;
49578;SDS011;35483;50.828;3.228;2024-03-08T07:15:20;27.50;;;21.38;;
49578;SDS011;35483;50.828;3.228;2024-03-08T07:17:48;28.15;;;21.40;;
49578;SDS011;35483;50.828;3.228;2024-03-08T07:20:14;26.77;;;20.77;;
49578;SDS011;35483;50.828;3.228;2024-03-08T07:22:44;28.02;;;21.15;;
49578;SDS011;35483;50.828;3.228;2024-03-08T07:25:12;27.42;;;22.40;;
49578;SDS011;35483;50.828;3.228;2024-03-08T07:27:51;27.10;;;21.70;;
49578;SDS011;35483;50.828;3.228;2024-03-08T07:30:18;26.52;;;20.40;;
49578;SDS011;35483;50.828;3.228;2024-03-08T07:33:02;27.50;;;21.00;;
49578;SDS011;35483;50.828;3.228;2024-03-08T07:35:28;29.65;;;21.67;;
49578;SDS011;35483;50.828;3.228;2024-03-08T07:37:54;29.38;;;21.98;;
49578;SDS011;35483;50.828;3.228;2024-03-08T07:40:21;25.65;;;19.88;;
49578;SDS011;35483;50.828;3.228;2024-03-08T07:42:46;25.55;;;19.75;;
49578;SDS011;35483;50.828;3.228;2024-03-08T07:45:12;33.30;;;20.35;;
49578;SDS011;35483;50.828;3.228;2024-03-08T07:47:38;28.15;;;22.48;;
49578;SDS011;35483;50.828;3.228;2024-03-08T07:50:05;27.77;;;21.13;;
49578;SDS011;35483;50.828;3.228;2024-03-08T07:52:33;27.33;;;21.73;;
49578;SDS011;35483;50.828;3.228;2024-03-08T07:54:59;27.17;;;20.88;;
49578;SDS011;35483;50.828;3.228;2024-03-08T07:57:25;27.50;;;20.58;;
49578;SDS011;35483;50.828;3.228;2024-03-08T07:59:51;23.20;;;19.83;;
49578;SDS011;35483;50.828;3.228;2024-03-08T08:02:17;25.35;;;20.38;;
49578;SDS011;35483;50.828;3.228;2024-03-08T08:04:43;24.23;;;20.02;;
49578;SDS011;35483;50.828;3.228;2024-03-08T08:07:10;26.17;;;20.17;;
49578;SDS011;35483;50.828;3.228;2024-03-08T08:09:36;24.80;;;19.85;;
49578;SDS011;35483;50.828;3.228;2024-03-08T08:12:02;28.88;;;21.60;;
49578;SDS011;35483;50.828;3.228;2024-03-08T08:14:29;25.40;;;19.95;;
49578;SDS011;35483;50.828;3.228;2024-03-08T08:16:56;27.25;;;20.83;;
49578;SDS011;35483;50.828;3.228;2024-03-08T08:19:22;26.10;;;20.08;;
49578;SDS011;35483;50.828;3.228;2024-03-08T08:21:48;25.02;;;20.10;;
49578;SDS011;35483;50.828;3.228;2024-03-08T08:24:14;25.77;;;19.77;;
49578;SDS011;35483;50.828;3.228;2024-03-08T08:26:40;25.48;;;18.80;;
49578;SDS011;35483;50.828;3.228;2024-03-08T08:29:06;25.73;;;19.63;;
49578;SDS011;35483;50.828;3.228;2024-03-08T08:31:32;23.92;;;19.35;;
49578;SDS011;35483;50.828;3.228;2024-03-08T08:33:58;25.23;;;19.77;;
49578;SDS011;35483;50.828;3.228;2024-03-08T08:36:24;24.77;;;20.13;;
49578;SDS011;35483;50.828;3.228;2024-03-08T08:38:50;24.83;;;19.33;;
49578;SDS011;35483;50.828;3.228;2024-03-08T08:41:19;26.48;;;19.48;;
49578;SDS011;35483;50.828;3.228;2024-03-08T08:43:46;25.20;;;19.35;;
49578;SDS011;35483;50.828;3.228;2024-03-08T08:46:12;27.73;;;19.10;;
49578;SDS011;35483;50.828;3.228;2024-03-08T08:48:41;24.45;;;19.30;;
49578;SDS011;35483;50.828;3.228;2024-03-08T08:51:09;23.58;;;18.70;;
49578;SDS011;35483;50.828;3.228;2024-03-08T08:53:40;22.90;;;18.40;;
49578;SDS011;35483;50.828;3.228;2024-03-08T08:56:08;25.05;;;19.77;;
49578;SDS011;35483;50.828;3.228;2024-03-08T08:58:37;24.67;;;18.25;;
49578;SDS011;35483;50.828;3.228;2024-03-08T09:01:05;22.00;;;18.15;;
49578;SDS011;35483;50.828;3.228;2024-03-08T09:03:30;22.80;;;17.23;;
49578;SDS011;35483;50.828;3.228;2024-03-08T09:05:56;23.48;;;18.13;;
49578;SDS011;35483;50.828;3.228;2024-03-08T09:08:23;23.75;;;18.40;;
49578;SDS011;35483;50.828;3.228;2024-03-08T09:10:49;25.40;;;18.20;;
49578;SDS011;35483;50.828;3.228;2024-03-08T09:13:16;21.02;;;16.27;;
49578;SDS011;35483;50.828;3.228;2024-03-08T09:15:43;27.05;;;18.55;;
49578;SDS011;35483;50.828;3.228;2024-03-08T09:18:09;24.67;;;18.73;;
49578;SDS011;35483;50.828;3.228;2024-03-08T09:20:35;24.02;;;17.67;;
49578;SDS011;35483;50.828;3.228;2024-03-08T09:23:02;22.90;;;16.63;;
49578;SDS011;35483;50.828;3.228;2024-03-08T09:25:29;23.05;;;16.65;;
49578;SDS011;35483;50.828;3.228;2024-03-08T09:27:55;24.17;;;17.45;;
49578;SDS011;35483;50.828;3.228;2024-03-08T09:30:21;21.98;;;16.75;;
49578;SDS011;35483;50.828;3.228;2024-03-08T09:32:47;22.60;;;17.20;;
49578;SDS011;35483;50.828;3.228;2024-03-08T09:35:13;22.15;;;16.20;;
49578;SDS011;35483;50.828;3.228;2024-03-08T09:37:38;24.45;;;17.17;;
49578;SDS011;35483;50.828;3.228;2024-03-08T09:40:04;21.92;;;16.92;;
49578;SDS011;35483;50.828;3.228;2024-03-08T09:42:34;21.50;;;16.98;;
49578;SDS011;35483;50.828;3.228;2024-03-08T09:45:08;21.30;;;15.82;;
49578;SDS011;35483;50.828;3.228;2024-03-08T09:47:46;21.55;;;16.08;;
49578;SDS011;35483;50.828;3.228;2024-03-08T09:50:14;21.75;;;16.50;;
49578;SDS011;35483;50.828;3.228;2024-03-08T09:52:41;23.10;;;15.90;;
49578;SDS011;35483;50.828;3.228;2024-03-08T09:55:11;24.67;;;17.08;;
49578;SDS011;35483;50.828;3.228;2024-03-08T09:57:37;21.15;;;15.63;;
49578;SDS011;35483;50.828;3.228;2024-03-08T10:00:04;23.70;;;16.90;;
49578;SDS011;35483;50.828;3.228;2024-03-08T10:02:46;21.60;;;15.10;;
49578;SDS011;35483;50.828;3.228;2024-03-08T10:05:13;20.80;;;15.45;;
49578;SDS011;35483;50.828;3.228;2024-03-08T10:07:39;21.17;;;15.48;;
49578;SDS011;35483;50.828;3.228;2024-03-08T10:10:05;20.73;;;15.10;;
49578;SDS011;35483;50.828;3.228;2024-03-08T10:12:33;21.98;;;16.35;;
49578;SDS011;35483;50.828;3.228;2024-03-08T10:14:59;23.17;;;16.45;;
49578;SDS011;35483;50.828;3.228;2024-03-08T10:17:26;20.48;;;15.70;;
49578;SDS011;35483;50.828;3.228;2024-03-08T10:19:52;20.30;;;15.30;;
49578;SDS011;35483;50.828;3.228;2024-03-08T10:22:18;21.00;;;15.35;;
49578;SDS011;35483;50.828;3.228;2024-03-08T10:24:45;18.23;;;14.82;;
49578;SDS011;35483;50.828;3.228;2024-03-08T10:27:18;20.00;;;15.60;;
49578;SDS011;35483;50.828;3.228;2024-03-08T10:29:47;20.90;;;15.43;;
49578;SDS011;35483;50.828;3.228;2024-03-08T10:32:13;22.67;;;15.52;;
49578;SDS011;35483;50.828;3.228;2024-03-08T10:34:39;22.77;;;15.75;;
49578;SDS011;35483;50.828;3.228;2024-03-08T10:37:07;22.60;;;15.93;;
49578;SDS011;35483;50.828;3.228;2024-03-08T10:39:36;21.40;;;15.70;;
49578;SDS011;35483;50.828;3.228;2024-03-08T10:42:03;19.45;;;15.20;;
49578;SDS011;35483;50.828;3.228;2024-03-08T10:49:30;20.55;;;14.90;;
49578;SDS011;35483;50.828;3.228;2024-03-08T10:52:00;22.10;;;15.35;;
49578;SDS011;35483;50.828;3.228;2024-03-08T10:54:31;19.70;;;14.35;;
49578;SDS011;35483;50.828;3.228;2024-03-08T10:56:58;20.90;;;15.25;;
49578;SDS011;35483;50.828;3.228;2024-03-08T10:59:26;20.30;;;14.75;;
49578;SDS011;35483;50.828;3.228;2024-03-08T11:01:53;20.45;;;15.38;;
49578;SDS011;35483;50.828;3.228;2024-03-08T11:04:19;20.58;;;15.52;;
49578;SDS011;35483;50.828;3.228;2024-03-08T11:06:48;19.75;;;15.43;;
49578;SDS011;35483;50.828;3.228;2024-03-08T11:09:36;21.30;;;14.30;;
49578;SDS011;35483;50.828;3.228;2024-03-08T11:12:19;21.00;;;15.48;;
49578;SDS011;35483;50.828;3.228;2024-03-08T11:14:52;22.00;;;15.52;;
49578;SDS011;35483;50.828;3.228;2024-03-08T11:19:55;20.55;;;15.35;;
49578;SDS011;35483;50.828;3.228;2024-03-08T11:23:06;20.70;;;14.60;;
49578;SDS011;35483;50.828;3.228;2024-03-08T11:25:30;21.15;;;15.25;;
49578;SDS011;35483;50.828;3.228;2024-03-08T11:28:12;20.90;;;14.77;;
49578;SDS011;35483;50.828;3.228;2024-03-08T11:30:43;19.38;;;14.70;;
49578;SDS011;35483;50.828;3.228;2024-03-08T11:33:28;20.92;;;15.45;;
49578;SDS011;35483;50.828;3.228;2024-03-08T11:36:09;20.63;;;15.02;;
49578;SDS011;35483;50.828;3.228;2024-03-08T11:38:42;19.50;;;14.45;;
49578;SDS011;35483;50.828;3.228;2024-03-08T11:41:09;19.23;;;15.23;;
49578;SDS011;35483;50.828;3.228;2024-03-08T11:43:39;18.98;;;14.75;;
49578;SDS011;35483;50.828;3.228;2024-03-08T11:46:10;21.00;;;14.50;;
49578;SDS011;35483;50.828;3.228;2024-03-08T11:48:41;18.20;;;14.65;;
49578;SDS011;35483;50.828;3.228;2024-03-08T11:51:08;20.45;;;14.50;;
49578;SDS011;35483;50.828;3.228;2024-03-08T11:53:33;18.50;;;13.55;;
49578;SDS011;35483;50.828;3.228;2024-03-08T11:56:08;18.88;;;14.88;;
49578;SDS011;35483;50.828;3.228;2024-03-08T11:58:34;20.20;;;13.40;;
49578;SDS011;35483;50.828;3.228;2024-03-08T12:01:06;17.85;;;13.00;;
49578;SDS011;35483;50.828;3.228;2024-03-08T12:03:37;21.38;;;14.40;;
49578;SDS011;35483;50.828;3.228;2024-03-08T12:06:08;18.30;;;13.45;;
49578;SDS011;35483;50.828;3.228;2024-03-08T12:08:37;20.70;;;13.77;;
49578;SDS011;35483;50.828;3.228;2024-03-08T12:11:06;17.42;;;13.57;;
49578;SDS011;35483;50.828;3.228;2024-03-08T12:13:35;23.40;;;14.88;;
49578;SDS011;35483;50.828;3.228;2024-03-08T12:16:04;18.33;;;13.13;;
49578;SDS011;35483;50.828;3.228;2024-03-08T12:18:33;18.33;;;13.65;;
49578;SDS011;35483;50.828;3.228;2024-03-08T12:21:10;18.50;;;13.23;;
49578;SDS011;35483;50.828;3.228;2024-03-08T12:23:39;18.75;;;13.18;;
49578;SDS011;35483;50.828;3.228;2024-03-08T12:28:49;18.02;;;12.23;;
49578;SDS011;35483;50.828;3.228;2024-03-08T12:31:18;17.55;;;12.15;;
49578;SDS011;35483;50.828;3.228;2024-03-08T12:33:49;17.95;;;13.18;;
49578;SDS011;35483;50.828;3.228;2024-03-08T12:36:16;21.40;;;13.38;;
49578;SDS011;35483;50.828;3.228;2024-03-08T12:38:45;17.10;;;12.25;;
49578;SDS011;35483;50.828;3.228;2024-03-08T12:41:15;17.88;;;12.60;;
49578;SDS011;35483;50.828;3.228;2024-03-08T12:43:42;16.45;;;11.93;;
49578;SDS011;35483;50.828;3.228;2024-03-08T12:46:16;17.80;;;13.15;;
49578;SDS011;35483;50.828;3.228;2024-03-08T12:48:45;17.25;;;11.88;;
49578;SDS011;35483;50.828;3.228;2024-03-08T12:51:14;16.33;;;12.70;;
49578;SDS011;35483;50.828;3.228;2024-03-08T12:53:42;17.90;;;12.27;;
49578;SDS011;35483;50.828;3.228;2024-03-08T12:56:15;16.15;;;11.63;;
49578;SDS011;35483;50.828;3.228;2024-03-08T12:58:53;18.23;;;12.70;;
49578;SDS011;35483;50.828;3.228;2024-03-08T13:01:19;18.83;;;12.48;;
49578;SDS011;35483;50.828;3.228;2024-03-08T13:03:45;16.15;;;12.45;;
49578;SDS011;35483;50.828;3.228;2024-03-08T13:06:11;16.17;;;11.85;;
49578;SDS011;35483;50.828;3.228;2024-03-08T13:08:37;16.85;;;12.65;;
49578;SDS011;35483;50.828;3.228;2024-03-08T13:11:09;15.43;;;11.90;;
49578;SDS011;35483;50.828;3.228;2024-03-08T13:13:40;15.73;;;12.27;;
49578;SDS011;35483;50.828;3.228;2024-03-08T13:16:06;15.02;;;11.48;;
49578;SDS011;35483;50.828;3.228;2024-03-08T13:18:38;19.13;;;12.80;;
49578;SDS011;35483;50.828;3.228;2024-03-08T13:21:04;22.15;;;12.27;;
49578;SDS011;35483;50.828;3.228;2024-03-08T13:23:31;20.70;;;12.70;;
49578;SDS011;35483;50.828;3.228;2024-03-08T13:25:57;18.02;;;12.32;;
49578;SDS011;35483;50.828;3.228;2024-03-08T13:28:23;18.33;;;13.52;;
49578;SDS011;35483;50.828;3.228;2024-03-08T13:30:53;17.40;;;11.80;;
49578;SDS011;35483;50.828;3.228;2024-03-08T13:33:20;16.65;;;12.52;;
49578;SDS011;35483;50.828;3.228;2024-03-08T13:35:45;17.58;;;12.20;;
49578;SDS011;35483;50.828;3.228;2024-03-08T13:38:11;17.02;;;11.98;;
49578;SDS011;35483;50.828;3.228;2024-03-08T13:40:38;17.60;;;11.93;;
49578;SDS011;35483;50.828;3.228;2024-03-08T13:43:05;18.85;;;12.20;;
49578;SDS011;35483;50.828;3.228;2024-03-08T13:45:33;18.70;;;12.07;;
49578;SDS011;35483;50.828;3.228;2024-03-08T13:48:03;18.65;;;11.65;;
49578;SDS011;35483;50.828;3.228;2024-03-08T13:50:30;16.90;;;11.95;;
49578;SDS011;35483;50.828;3.228;2024-03-08T13:52:56;15.73;;;11.18;;
49578;SDS011;35483;50.828;3.228;2024-03-08T13:55:22;15.27;;;11.13;;
49578;SDS011;35483;50.828;3.228;2024-03-08T13:57:50;16.55;;;11.57;;
49578;SDS011;35483;50.828;3.228;2024-03-08T14:00:18;16.10;;;11.30;;
49578;SDS011;35483;50.828;3.228;2024-03-08T14:02:48;16.38;;;11.52;;
49578;SDS011;35483;50.828;3.228;2024-03-08T14:05:14;15.95;;;11.07;;
49578;SDS011;35483;50.828;3.228;2024-03-08T14:07:41;16.83;;;11.23;;
49578;SDS011;35483;50.828;3.228;2024-03-08T14:10:07;18.83;;;11.93;;
49578;SDS011;35483;50.828;3.228;2024-03-08T14:12:34;15.93;;;11.75;;
49578;SDS011;35483;50.828;3.228;2024-03-08T14:15:01;17.08;;;12.70;;
49578;SDS011;35483;50.828;3.228;2024-03-08T14:17:28;15.55;;;12.05;;
49578;SDS011;35483;50.828;3.228;2024-03-08T14:19:56;14.50;;;11.35;;
49578;SDS011;35483;50.828;3.228;2024-03-08T14:22:21;16.70;;;11.50;;
49578;SDS011;35483;50.828;3.228;2024-03-08T14:24:48;15.32;;;11.63;;
49578;SDS011;35483;50.828;3.228;2024-03-08T14:27:14;15.85;;;11.93;;
49578;SDS011;35483;50.828;3.228;2024-03-08T14:29:42;16.02;;;11.10;;
49578;SDS011;35483;50.828;3.228;2024-03-08T14:32:08;15.25;;;11.57;;
49578;SDS011;35483;50.828;3.228;2024-03-08T14:34:35;15.50;;;10.43;;